sensor_id;sensor_type;location;lat;lon;timestamp;temperature;humidity
3308;DHT22;1666;48.898;9.182;2022-09-29T00:01:49;7.70;40.30
3308;DHT22;1666;48.898;9.182;2022-09-29T00:04:19;7.70;40.30
3308;DHT22;1666;48.898;9.182;2022-09-29T00:06:49;7.70;40.20
3308;DHT22;1666;48.898;9.182;2022-09-29T00:09:19;7.80;40.40
3308;DHT22;1666;48.898;9.182;2022-09-29T00:11:52;7.90;40.50
3308;DHT22;1666;48.898;9.182;2022-09-29T00:14:23;7.90;40.40
3308;DHT22;1666;48.898;9.182;2022-09-29T00:16:53;7.90;40.40
3308;DHT22;1666;48.898;9.182;2022-09-29T00:19:23;8.00;40.40
3308;DHT22;1666;48.898;9.182;2022-09-29T00:21:54;8.10;39.00
3308;DHT22;1666;48.898;9.182;2022-09-29T00:24:24;8.10;38.50
3308;DHT22;1666;48.898;9.182;2022-09-29T00:26:56;8.20;38.00
3308;DHT22;1666;48.898;9.182;2022-09-29T00:29:27;8.20;37.20
3308;DHT22;1666;48.898;9.182;2022-09-29T00:31:56;8.30;36.60
3308;DHT22;1666;48.898;9.182;2022-09-29T00:34:26;8.20;36.50
3308;DHT22;1666;48.898;9.182;2022-09-29T00:36:56;8.20;35.80
3308;DHT22;1666;48.898;9.182;2022-09-29T00:39:26;8.20;35.80
3308;DHT22;1666;48.898;9.182;2022-09-29T00:41:58;8.20;35.80
3308;DHT22;1666;48.898;9.182;2022-09-29T00:44:53;8.20;35.30
3308;DHT22;1666;48.898;9.182;2022-09-29T00:47:23;8.20;35.80
3308;DHT22;1666;48.898;9.182;2022-09-29T00:49:56;8.10;36.10
3308;DHT22;1666;48.898;9.182;2022-09-29T00:52:28;8.10;36.50
3308;DHT22;1666;48.898;9.182;2022-09-29T00:55:03;8.10;36.50
3308;DHT22;1666;48.898;9.182;2022-09-29T00:57:40;8.10;36.40
3308;DHT22;1666;48.898;9.182;2022-09-29T01:00:13;8.20;36.00
3308;DHT22;1666;48.898;9.182;2022-09-29T01:02:47;8.10;36.30
3308;DHT22;1666;48.898;9.182;2022-09-29T01:05:22;8.10;36.40
3308;DHT22;1666;48.898;9.182;2022-09-29T01:07:52;8.00;36.40
3308;DHT22;1666;48.898;9.182;2022-09-29T01:10:23;8.00;37.10
3308;DHT22;1666;48.898;9.182;2022-09-29T01:12:56;8.00;37.60
3308;DHT22;1666;48.898;9.182;2022-09-29T01:15:26;7.90;38.10
3308;DHT22;1666;48.898;9.182;2022-09-29T01:17:56;7.90;38.30
3308;DHT22;1666;48.898;9.182;2022-09-29T01:20:32;7.90;39.10
3308;DHT22;1666;48.898;9.182;2022-09-29T01:23:27;7.80;39.20
3308;DHT22;1666;48.898;9.182;2022-09-29T01:26:25;7.90;39.60
3308;DHT22;1666;48.898;9.182;2022-09-29T01:32:19;7.90;40.00
3308;DHT22;1666;48.898;9.182;2022-09-29T01:34:58;7.90;40.10
3308;DHT22;1666;48.898;9.182;2022-09-29T01:37:39;8.00;40.40
3308;DHT22;1666;48.898;9.182;2022-09-29T01:40:14;8.00;39.50
3308;DHT22;1666;48.898;9.182;2022-09-29T01:42:51;8.00;39.40
3308;DHT22;1666;48.898;9.182;2022-09-29T01:45:28;8.10;39.50
3308;DHT22;1666;48.898;9.182;2022-09-29T01:48:04;8.10;39.20
3308;DHT22;1666;48.898;9.182;2022-09-29T01:50:38;8.00;38.60
3308;DHT22;1666;48.898;9.182;2022-09-29T01:53:13;8.10;38.70
3308;DHT22;1666;48.898;9.182;2022-09-29T01:55:47;8.10;38.80
3308;DHT22;1666;48.898;9.182;2022-09-29T01:58:21;8.10;38.80
3308;DHT22;1666;48.898;9.182;2022-09-29T02:00:55;8.20;38.70
3308;DHT22;1666;48.898;9.182;2022-09-29T02:03:30;8.20;38.10
3308;DHT22;1666;48.898;9.182;2022-09-29T02:06:06;8.20;38.00
3308;DHT22;1666;48.898;9.182;2022-09-29T02:08:41;8.20;38.00
3308;DHT22;1666;48.898;9.182;2022-09-29T02:11:12;8.20;36.80
3308;DHT22;1666;48.898;9.182;2022-09-29T02:13:47;8.30;36.80
3308;DHT22;1666;48.898;9.182;2022-09-29T02:16:21;8.30;36.00
3308;DHT22;1666;48.898;9.182;2022-09-29T02:18:57;8.30;36.60
3308;DHT22;1666;48.898;9.182;2022-09-29T02:21:29;8.30;36.50
3308;DHT22;1666;48.898;9.182;2022-09-29T02:24:00;8.30;36.40
3308;DHT22;1666;48.898;9.182;2022-09-29T02:26:32;8.40;36.70
3308;DHT22;1666;48.898;9.182;2022-09-29T02:29:03;8.30;36.80
3308;DHT22;1666;48.898;9.182;2022-09-29T02:31:34;8.40;37.10
3308;DHT22;1666;48.898;9.182;2022-09-29T02:34:10;8.40;37.00
3308;DHT22;1666;48.898;9.182;2022-09-29T02:36:46;8.40;37.80
3308;DHT22;1666;48.898;9.182;2022-09-29T02:39:25;8.30;37.30
3308;DHT22;1666;48.898;9.182;2022-09-29T02:42:02;8.40;37.20
3308;DHT22;1666;48.898;9.182;2022-09-29T02:44:48;8.50;36.70
3308;DHT22;1666;48.898;9.182;2022-09-29T02:50:35;8.50;35.30
3308;DHT22;1666;48.898;9.182;2022-09-29T02:53:16;8.50;34.90
3308;DHT22;1666;48.898;9.182;2022-09-29T02:55:56;8.50;35.00
3308;DHT22;1666;48.898;9.182;2022-09-29T02:58:33;8.50;35.10
3308;DHT22;1666;48.898;9.182;2022-09-29T03:01:13;8.50;35.70
3308;DHT22;1666;48.898;9.182;2022-09-29T03:03:43;8.50;35.00
3308;DHT22;1666;48.898;9.182;2022-09-29T03:06:18;8.50;35.10
3308;DHT22;1666;48.898;9.182;2022-09-29T03:08:48;8.50;35.20
3308;DHT22;1666;48.898;9.182;2022-09-29T03:11:18;8.50;34.90
3308;DHT22;1666;48.898;9.182;2022-09-29T03:13:48;8.50;34.80
3308;DHT22;1666;48.898;9.182;2022-09-29T03:16:18;8.50;34.10
3308;DHT22;1666;48.898;9.182;2022-09-29T03:18:47;8.50;34.30
3308;DHT22;1666;48.898;9.182;2022-09-29T03:21:20;8.50;34.40
3308;DHT22;1666;48.898;9.182;2022-09-29T03:23:50;8.50;33.80
3308;DHT22;1666;48.898;9.182;2022-09-29T03:26:23;8.50;33.40
3308;DHT22;1666;48.898;9.182;2022-09-29T03:28:53;8.50;32.70
3308;DHT22;1666;48.898;9.182;2022-09-29T03:31:23;8.50;32.60
3308;DHT22;1666;48.898;9.182;2022-09-29T03:33:53;8.50;32.50
3308;DHT22;1666;48.898;9.182;2022-09-29T03:36:25;8.50;33.50
3308;DHT22;1666;48.898;9.182;2022-09-29T03:38:56;8.40;33.90
3308;DHT22;1666;48.898;9.182;2022-09-29T03:41:26;8.40;34.60
3308;DHT22;1666;48.898;9.182;2022-09-29T03:43:56;8.30;35.10
3308;DHT22;1666;48.898;9.182;2022-09-29T03:46:25;8.20;35.20
3308;DHT22;1666;48.898;9.182;2022-09-29T03:48:55;8.20;36.90
3308;DHT22;1666;48.898;9.182;2022-09-29T03:51:27;8.10;37.50
3308;DHT22;1666;48.898;9.182;2022-09-29T03:53:57;8.10;38.20
3308;DHT22;1666;48.898;9.182;2022-09-29T03:56:27;8.00;38.40
3308;DHT22;1666;48.898;9.182;2022-09-29T03:58:57;8.00;38.60
3308;DHT22;1666;48.898;9.182;2022-09-29T04:01:26;8.00;39.50
3308;DHT22;1666;48.898;9.182;2022-09-29T04:03:56;7.90;40.40
3308;DHT22;1666;48.898;9.182;2022-09-29T04:06:29;7.80;40.40
3308;DHT22;1666;48.898;9.182;2022-09-29T04:08:59;7.80;40.80
3308;DHT22;1666;48.898;9.182;2022-09-29T04:11:29;7.70;41.50
3308;DHT22;1666;48.898;9.182;2022-09-29T04:13:58;7.70;41.60
3308;DHT22;1666;48.898;9.182;2022-09-29T04:16:28;7.60;42.50
3308;DHT22;1666;48.898;9.182;2022-09-29T04:18:58;7.60;43.30
3308;DHT22;1666;48.898;9.182;2022-09-29T04:21:32;7.50;44.00
3308;DHT22;1666;48.898;9.182;2022-09-29T04:24:02;7.40;44.20
3308;DHT22;1666;48.898;9.182;2022-09-29T04:26:31;7.40;45.10
3308;DHT22;1666;48.898;9.182;2022-09-29T04:29:01;7.40;45.40
3308;DHT22;1666;48.898;9.182;2022-09-29T04:31:31;7.40;45.80
3308;DHT22;1666;48.898;9.182;2022-09-29T04:34:01;7.30;46.10
3308;DHT22;1666;48.898;9.182;2022-09-29T04:36:34;7.30;46.30
3308;DHT22;1666;48.898;9.182;2022-09-29T04:39:05;7.30;46.60
3308;DHT22;1666;48.898;9.182;2022-09-29T04:41:34;7.30;46.80
3308;DHT22;1666;48.898;9.182;2022-09-29T04:44:05;7.20;46.70
3308;DHT22;1666;48.898;9.182;2022-09-29T04:46:35;7.20;47.20
3308;DHT22;1666;48.898;9.182;2022-09-29T04:49:05;7.20;47.30
3308;DHT22;1666;48.898;9.182;2022-09-29T04:51:37;7.20;47.50
3308;DHT22;1666;48.898;9.182;2022-09-29T04:54:07;7.20;47.60
3308;DHT22;1666;48.898;9.182;2022-09-29T04:56:37;7.20;47.90
3308;DHT22;1666;48.898;9.182;2022-09-29T04:59:08;7.20;47.90
3308;DHT22;1666;48.898;9.182;2022-09-29T05:01:38;7.10;48.60
3308;DHT22;1666;48.898;9.182;2022-09-29T05:04:08;7.10;48.00
3308;DHT22;1666;48.898;9.182;2022-09-29T05:06:41;7.20;48.20
3308;DHT22;1666;48.898;9.182;2022-09-29T05:09:12;7.20;48.30
3308;DHT22;1666;48.898;9.182;2022-09-29T05:11:42;7.30;48.40
3308;DHT22;1666;48.898;9.182;2022-09-29T05:14:12;7.30;48.30
3308;DHT22;1666;48.898;9.182;2022-09-29T05:16:42;7.30;48.20
3308;DHT22;1666;48.898;9.182;2022-09-29T05:19:12;7.30;48.20
3308;DHT22;1666;48.898;9.182;2022-09-29T05:21:45;7.30;48.20
3308;DHT22;1666;48.898;9.182;2022-09-29T05:24:15;7.40;48.20
3308;DHT22;1666;48.898;9.182;2022-09-29T05:26:45;7.40;48.10
3308;DHT22;1666;48.898;9.182;2022-09-29T05:29:15;7.40;48.20
3308;DHT22;1666;48.898;9.182;2022-09-29T05:31:45;7.50;48.30
3308;DHT22;1666;48.898;9.182;2022-09-29T05:34:15;7.60;47.20
3308;DHT22;1666;48.898;9.182;2022-09-29T05:36:47;7.60;46.30
3308;DHT22;1666;48.898;9.182;2022-09-29T05:39:17;7.60;45.60
3308;DHT22;1666;48.898;9.182;2022-09-29T05:41:47;7.50;44.60
3308;DHT22;1666;48.898;9.182;2022-09-29T05:44:23;7.60;44.40
3308;DHT22;1666;48.898;9.182;2022-09-29T05:46:53;7.60;43.80
3308;DHT22;1666;48.898;9.182;2022-09-29T05:49:23;7.60;43.00
3308;DHT22;1666;48.898;9.182;2022-09-29T05:51:55;7.60;42.00
3308;DHT22;1666;48.898;9.182;2022-09-29T05:54:25;7.60;41.90
3308;DHT22;1666;48.898;9.182;2022-09-29T05:56:55;7.60;42.00
3308;DHT22;1666;48.898;9.182;2022-09-29T05:59:25;7.60;41.60
3308;DHT22;1666;48.898;9.182;2022-09-29T06:01:55;7.70;41.50
3308;DHT22;1666;48.898;9.182;2022-09-29T06:04:25;7.70;40.50
3308;DHT22;1666;48.898;9.182;2022-09-29T06:06:57;7.70;41.10
3308;DHT22;1666;48.898;9.182;2022-09-29T06:09:27;7.90;40.80
3308;DHT22;1666;48.898;9.182;2022-09-29T06:11:57;7.80;40.30
3308;DHT22;1666;48.898;9.182;2022-09-29T06:14:27;7.90;40.60
3308;DHT22;1666;48.898;9.182;2022-09-29T06:16:57;8.00;39.30
3308;DHT22;1666;48.898;9.182;2022-09-29T06:19:27;8.00;38.20
3308;DHT22;1666;48.898;9.182;2022-09-29T06:21:59;8.20;38.30
3308;DHT22;1666;48.898;9.182;2022-09-29T06:24:29;8.30;37.40
3308;DHT22;1666;48.898;9.182;2022-09-29T06:26:58;8.30;36.20
3308;DHT22;1666;48.898;9.182;2022-09-29T06:29:28;8.40;35.10
3308;DHT22;1666;48.898;9.182;2022-09-29T06:31:58;8.40;35.10
3308;DHT22;1666;48.898;9.182;2022-09-29T06:34:28;8.40;34.20
3308;DHT22;1666;48.898;9.182;2022-09-29T06:37:00;8.50;32.50
3308;DHT22;1666;48.898;9.182;2022-09-29T06:39:42;8.70;33.30
3308;DHT22;1666;48.898;9.182;2022-09-29T06:42:12;8.70;30.70
3308;DHT22;1666;48.898;9.182;2022-09-29T06:44:42;8.80;30.40
3308;DHT22;1666;48.898;9.182;2022-09-29T06:47:11;8.90;29.00
3308;DHT22;1666;48.898;9.182;2022-09-29T06:49:41;8.80;28.50
3308;DHT22;1666;48.898;9.182;2022-09-29T06:52:27;8.80;28.00
3308;DHT22;1666;48.898;9.182;2022-09-29T06:54:57;8.90;28.30
3308;DHT22;1666;48.898;9.182;2022-09-29T06:57:27;8.90;27.80
3308;DHT22;1666;48.898;9.182;2022-09-29T06:59:57;8.90;27.60
3308;DHT22;1666;48.898;9.182;2022-09-29T07:02:27;8.80;25.90
3308;DHT22;1666;48.898;9.182;2022-09-29T07:04:56;9.00;26.90
3308;DHT22;1666;48.898;9.182;2022-09-29T07:07:29;9.10;25.00
3308;DHT22;1666;48.898;9.182;2022-09-29T07:09:59;9.20;23.90
3308;DHT22;1666;48.898;9.182;2022-09-29T07:12:29;9.40;21.80
3308;DHT22;1666;48.898;9.182;2022-09-29T07:14:58;9.50;20.30
3308;DHT22;1666;48.898;9.182;2022-09-29T07:17:28;9.40;19.70
3308;DHT22;1666;48.898;9.182;2022-09-29T07:19:58;9.50;20.10
3308;DHT22;1666;48.898;9.182;2022-09-29T07:22:30;9.60;18.20
3308;DHT22;1666;48.898;9.182;2022-09-29T07:25:00;9.50;18.30
3308;DHT22;1666;48.898;9.182;2022-09-29T07:27:30;9.60;16.40
3308;DHT22;1666;48.898;9.182;2022-09-29T07:30:01;9.40;18.00
3308;DHT22;1666;48.898;9.182;2022-09-29T07:32:31;9.50;19.90
3308;DHT22;1666;48.898;9.182;2022-09-29T07:35:01;9.70;17.70
3308;DHT22;1666;48.898;9.182;2022-09-29T07:37:33;9.80;17.60
3308;DHT22;1666;48.898;9.182;2022-09-29T07:40:04;9.90;17.40
3308;DHT22;1666;48.898;9.182;2022-09-29T07:42:34;9.90;17.30
3308;DHT22;1666;48.898;9.182;2022-09-29T07:45:06;10.00;15.00
3308;DHT22;1666;48.898;9.182;2022-09-29T07:47:36;9.80;14.30
3308;DHT22;1666;48.898;9.182;2022-09-29T07:50:06;9.80;16.50
3308;DHT22;1666;48.898;9.182;2022-09-29T07:52:39;9.90;17.80
3308;DHT22;1666;48.898;9.182;2022-09-29T07:55:09;10.00;15.00
3308;DHT22;1666;48.898;9.182;2022-09-29T07:57:38;10.10;15.10
3308;DHT22;1666;48.898;9.182;2022-09-29T08:00:10;10.10;13.20
3308;DHT22;1666;48.898;9.182;2022-09-29T08:02:39;10.10;14.00
3308;DHT22;1666;48.898;9.182;2022-09-29T08:05:09;10.30;12.40
3308;DHT22;1666;48.898;9.182;2022-09-29T08:07:42;10.10;13.70
3308;DHT22;1666;48.898;9.182;2022-09-29T08:10:11;10.30;11.90
3308;DHT22;1666;48.898;9.182;2022-09-29T08:12:44;10.70;11.00
3308;DHT22;1666;48.898;9.182;2022-09-29T08:15:14;10.80;8.30
3308;DHT22;1666;48.898;9.182;2022-09-29T08:17:43;10.70;8.80
3308;DHT22;1666;48.898;9.182;2022-09-29T08:20:13;10.80;8.40
3308;DHT22;1666;48.898;9.182;2022-09-29T08:22:46;10.90;7.30
3308;DHT22;1666;48.898;9.182;2022-09-29T08:25:17;10.80;7.30
3308;DHT22;1666;48.898;9.182;2022-09-29T08:27:46;11.00;7.00
3308;DHT22;1666;48.898;9.182;2022-09-29T08:30:21;10.80;7.10
3308;DHT22;1666;48.898;9.182;2022-09-29T08:32:51;10.70;7.40
3308;DHT22;1666;48.898;9.182;2022-09-29T08:35:22;11.10;7.10
3308;DHT22;1666;48.898;9.182;2022-09-29T08:37:55;10.90;4.70
3308;DHT22;1666;48.898;9.182;2022-09-29T08:40:27;11.10;6.10
3308;DHT22;1666;48.898;9.182;2022-09-29T08:43:02;11.40;2.70
3308;DHT22;1666;48.898;9.182;2022-09-29T08:45:38;11.50;2.50
3308;DHT22;1666;48.898;9.182;2022-09-29T08:48:25;11.90;1.70
3308;DHT22;1666;48.898;9.182;2022-09-29T08:50:58;11.60;1.00
3308;DHT22;1666;48.898;9.182;2022-09-29T08:53:34;12.10;1.00
3308;DHT22;1666;48.898;9.182;2022-09-29T08:56:13;12.10;1.00
3308;DHT22;1666;48.898;9.182;2022-09-29T08:58:44;12.00;1.00
3308;DHT22;1666;48.898;9.182;2022-09-29T09:01:21;12.00;1.00
3308;DHT22;1666;48.898;9.182;2022-09-29T09:04:11;12.20;1.00
3308;DHT22;1666;48.898;9.182;2022-09-29T09:06:57;12.30;1.00
3308;DHT22;1666;48.898;9.182;2022-09-29T09:09:44;12.30;1.00
3308;DHT22;1666;48.898;9.182;2022-09-29T09:21:06;12.60;1.00
3308;DHT22;1666;48.898;9.182;2022-09-29T09:23:48;12.30;1.00
3308;DHT22;1666;48.898;9.182;2022-09-29T09:26:32;12.50;1.00
3308;DHT22;1666;48.898;9.182;2022-09-29T09:29:10;12.90;1.00
3308;DHT22;1666;48.898;9.182;2022-09-29T09:31:45;13.00;1.00
3308;DHT22;1666;48.898;9.182;2022-09-29T09:34:21;13.30;1.00
3308;DHT22;1666;48.898;9.182;2022-09-29T09:37:11;13.10;1.00
3308;DHT22;1666;48.898;9.182;2022-09-29T09:39:47;12.70;1.00
3308;DHT22;1666;48.898;9.182;2022-09-29T09:42:24;12.70;1.00
3308;DHT22;1666;48.898;9.182;2022-09-29T09:44:59;12.60;1.00
3308;DHT22;1666;48.898;9.182;2022-09-29T09:47:33;12.90;1.00
3308;DHT22;1666;48.898;9.182;2022-09-29T09:50:13;13.00;1.00
3308;DHT22;1666;48.898;9.182;2022-09-29T09:52:46;12.80;1.00
3308;DHT22;1666;48.898;9.182;2022-09-29T09:55:17;12.90;1.00
3308;DHT22;1666;48.898;9.182;2022-09-29T09:58:00;13.30;1.00
3308;DHT22;1666;48.898;9.182;2022-09-29T10:00:36;13.00;1.00
3308;DHT22;1666;48.898;9.182;2022-09-29T10:03:08;12.80;1.00
3308;DHT22;1666;48.898;9.182;2022-09-29T10:05:42;13.10;1.00
3308;DHT22;1666;48.898;9.182;2022-09-29T10:08:17;13.10;1.00
3308;DHT22;1666;48.898;9.182;2022-09-29T10:10:49;13.30;1.00
3308;DHT22;1666;48.898;9.182;2022-09-29T10:13:29;13.40;1.00
3308;DHT22;1666;48.898;9.182;2022-09-29T10:16:09;13.60;1.00
3308;DHT22;1666;48.898;9.182;2022-09-29T10:18:41;13.70;1.00
3308;DHT22;1666;48.898;9.182;2022-09-29T10:21:20;13.90;1.00
3308;DHT22;1666;48.898;9.182;2022-09-29T10:23:52;13.80;1.00
3308;DHT22;1666;48.898;9.182;2022-09-29T10:26:24;13.90;1.00
3308;DHT22;1666;48.898;9.182;2022-09-29T10:29:00;13.90;1.00
3308;DHT22;1666;48.898;9.182;2022-09-29T10:31:32;13.80;1.00
3308;DHT22;1666;48.898;9.182;2022-09-29T10:34:14;13.80;1.00
3308;DHT22;1666;48.898;9.182;2022-09-29T10:36:50;13.90;1.00
3308;DHT22;1666;48.898;9.182;2022-09-29T10:39:31;13.80;1.00
3308;DHT22;1666;48.898;9.182;2022-09-29T10:42:02;13.80;1.00
3308;DHT22;1666;48.898;9.182;2022-09-29T10:44:38;13.40;1.00
3308;DHT22;1666;48.898;9.182;2022-09-29T10:47:13;13.40;1.00
3308;DHT22;1666;48.898;9.182;2022-09-29T10:49:43;13.50;1.00
3308;DHT22;1666;48.898;9.182;2022-09-29T10:52:22;13.90;1.00
3308;DHT22;1666;48.898;9.182;2022-09-29T10:54:54;13.90;1.00
3308;DHT22;1666;48.898;9.182;2022-09-29T10:57:27;13.80;1.00
3308;DHT22;1666;48.898;9.182;2022-09-29T11:00:02;14.00;1.00
3308;DHT22;1666;48.898;9.182;2022-09-29T11:02:35;14.30;1.00
3308;DHT22;1666;48.898;9.182;2022-09-29T11:05:16;14.50;1.00
3308;DHT22;1666;48.898;9.182;2022-09-29T11:07:49;13.80;1.00
3308;DHT22;1666;48.898;9.182;2022-09-29T11:10:30;14.00;1.00
3308;DHT22;1666;48.898;9.182;2022-09-29T11:13:37;14.40;1.00
3308;DHT22;1666;48.898;9.182;2022-09-29T11:16:17;14.40;1.00
3308;DHT22;1666;48.898;9.182;2022-09-29T11:18:49;14.80;1.00
3308;DHT22;1666;48.898;9.182;2022-09-29T11:21:53;14.60;1.00
3308;DHT22;1666;48.898;9.182;2022-09-29T11:24:52;14.80;1.00
3308;DHT22;1666;48.898;9.182;2022-09-29T11:27:35;14.90;1.00
3308;DHT22;1666;48.898;9.182;2022-09-29T11:30:08;14.60;1.00
3308;DHT22;1666;48.898;9.182;2022-09-29T11:35:47;14.20;1.00
3308;DHT22;1666;48.898;9.182;2022-09-29T11:38:34;14.40;1.00
3308;DHT22;1666;48.898;9.182;2022-09-29T11:41:18;14.40;1.00
3308;DHT22;1666;48.898;9.182;2022-09-29T11:43:53;14.20;1.00
3308;DHT22;1666;48.898;9.182;2022-09-29T11:46:39;14.40;1.00
3308;DHT22;1666;48.898;9.182;2022-09-29T11:49:36;14.60;1.00
3308;DHT22;1666;48.898;9.182;2022-09-29T11:55:21;14.60;1.00
3308;DHT22;1666;48.898;9.182;2022-09-29T11:58:01;14.50;1.00
3308;DHT22;1666;48.898;9.182;2022-09-29T12:00:44;14.60;1.00
3308;DHT22;1666;48.898;9.182;2022-09-29T12:03:27;14.40;1.00
3308;DHT22;1666;48.898;9.182;2022-09-29T12:06:14;14.50;1.00
3308;DHT22;1666;48.898;9.182;2022-09-29T12:08:54;14.50;1.00
3308;DHT22;1666;48.898;9.182;2022-09-29T12:11:36;14.40;1.00
3308;DHT22;1666;48.898;9.182;2022-09-29T12:14:32;14.30;1.00
3308;DHT22;1666;48.898;9.182;2022-09-29T12:17:10;14.30;1.00
3308;DHT22;1666;48.898;9.182;2022-09-29T12:19:42;14.30;1.00
3308;DHT22;1666;48.898;9.182;2022-09-29T12:22:18;14.20;1.00
3308;DHT22;1666;48.898;9.182;2022-09-29T12:24:50;14.40;1.00
3308;DHT22;1666;48.898;9.182;2022-09-29T12:27:23;14.40;1.00
3308;DHT22;1666;48.898;9.182;2022-09-29T12:29:58;14.50;1.00
3308;DHT22;1666;48.898;9.182;2022-09-29T12:32:33;14.40;1.00
3308;DHT22;1666;48.898;9.182;2022-09-29T12:35:13;14.30;1.00
3308;DHT22;1666;48.898;9.182;2022-09-29T12:37:50;14.30;1.00
3308;DHT22;1666;48.898;9.182;2022-09-29T12:40:26;14.40;1.00
3308;DHT22;1666;48.898;9.182;2022-09-29T12:43:03;14.50;1.00
3308;DHT22;1666;48.898;9.182;2022-09-29T12:45:39;14.50;1.00
3308;DHT22;1666;48.898;9.182;2022-09-29T12:48:20;14.40;1.00
3308;DHT22;1666;48.898;9.182;2022-09-29T12:50:59;14.30;1.00
3308;DHT22;1666;48.898;9.182;2022-09-29T12:53:36;14.50;1.00
3308;DHT22;1666;48.898;9.182;2022-09-29T12:56:11;14.30;1.00
3308;DHT22;1666;48.898;9.182;2022-09-29T12:58:45;14.60;1.00
3308;DHT22;1666;48.898;9.182;2022-09-29T13:01:22;14.50;1.00
3308;DHT22;1666;48.898;9.182;2022-09-29T13:04:16;14.60;1.00
3308;DHT22;1666;48.898;9.182;2022-09-29T13:10:08;14.50;1.00
3308;DHT22;1666;48.898;9.182;2022-09-29T13:12:57;14.30;1.00
3308;DHT22;1666;48.898;9.182;2022-09-29T13:15:55;14.30;1.00
3308;DHT22;1666;48.898;9.182;2022-09-29T13:21:55;14.20;1.00
3308;DHT22;1666;48.898;9.182;2022-09-29T13:24:37;14.10;1.00
3308;DHT22;1666;48.898;9.182;2022-09-29T13:27:30;14.20;1.00
3308;DHT22;1666;48.898;9.182;2022-09-29T13:30:05;14.30;1.00
3308;DHT22;1666;48.898;9.182;2022-09-29T13:32:41;14.30;1.00
3308;DHT22;1666;48.898;9.182;2022-09-29T13:35:14;14.40;1.00
3308;DHT22;1666;48.898;9.182;2022-09-29T13:37:50;14.50;1.00
3308;DHT22;1666;48.898;9.182;2022-09-29T13:40:23;14.40;1.00
3308;DHT22;1666;48.898;9.182;2022-09-29T13:42:57;14.30;1.00
3308;DHT22;1666;48.898;9.182;2022-09-29T13:45:41;14.40;1.00
3308;DHT22;1666;48.898;9.182;2022-09-29T13:48:34;14.40;1.00
3308;DHT22;1666;48.898;9.182;2022-09-29T13:54:38;14.40;1.00
3308;DHT22;1666;48.898;9.182;2022-09-29T13:57:26;14.40;1.00
3308;DHT22;1666;48.898;9.182;2022-09-29T14:00:25;14.50;1.00
3308;DHT22;1666;48.898;9.182;2022-09-29T14:03:16;14.40;1.00
3308;DHT22;1666;48.898;9.182;2022-09-29T14:06:03;14.30;1.00
3308;DHT22;1666;48.898;9.182;2022-09-29T14:08:58;14.30;1.00
3308;DHT22;1666;48.898;9.182;2022-09-29T14:11:32;14.20;1.00
3308;DHT22;1666;48.898;9.182;2022-09-29T14:14:06;14.20;1.00
3308;DHT22;1666;48.898;9.182;2022-09-29T14:16:52;14.20;1.00
3308;DHT22;1666;48.898;9.182;2022-09-29T14:19:40;14.10;1.00
3308;DHT22;1666;48.898;9.182;2022-09-29T14:25:33;14.20;1.00
3308;DHT22;1666;48.898;9.182;2022-09-29T14:28:22;14.20;1.00
3308;DHT22;1666;48.898;9.182;2022-09-29T14:30:58;14.20;1.00
3308;DHT22;1666;48.898;9.182;2022-09-29T14:33:35;14.20;1.00
3308;DHT22;1666;48.898;9.182;2022-09-29T14:36:09;13.80;1.00
3308;DHT22;1666;48.898;9.182;2022-09-29T14:38:42;14.00;1.00
3308;DHT22;1666;48.898;9.182;2022-09-29T14:41:40;13.90;1.00
3308;DHT22;1666;48.898;9.182;2022-09-29T14:44:14;13.80;1.00
3308;DHT22;1666;48.898;9.182;2022-09-29T14:47:05;13.60;1.00
3308;DHT22;1666;48.898;9.182;2022-09-29T14:50:16;13.70;1.00
3308;DHT22;1666;48.898;9.182;2022-09-29T14:56:01;13.70;1.00
3308;DHT22;1666;48.898;9.182;2022-09-29T14:58:48;13.70;1.00
3308;DHT22;1666;48.898;9.182;2022-09-29T15:01:27;13.70;1.00
3308;DHT22;1666;48.898;9.182;2022-09-29T15:04:04;13.60;1.00
3308;DHT22;1666;48.898;9.182;2022-09-29T15:06:44;13.70;1.00
3308;DHT22;1666;48.898;9.182;2022-09-29T15:09:16;13.60;1.00
3308;DHT22;1666;48.898;9.182;2022-09-29T15:11:49;13.80;1.00
3308;DHT22;1666;48.898;9.182;2022-09-29T15:14:23;13.70;1.00
3308;DHT22;1666;48.898;9.182;2022-09-29T15:17:03;13.80;1.00
3308;DHT22;1666;48.898;9.182;2022-09-29T15:19:54;13.80;1.00
3308;DHT22;1666;48.898;9.182;2022-09-29T15:25:35;13.70;1.00
3308;DHT22;1666;48.898;9.182;2022-09-29T15:28:11;13.70;1.00
3308;DHT22;1666;48.898;9.182;2022-09-29T15:30:43;13.60;1.00
3308;DHT22;1666;48.898;9.182;2022-09-29T15:33:20;13.70;1.00
3308;DHT22;1666;48.898;9.182;2022-09-29T15:35:52;13.60;1.00
3308;DHT22;1666;48.898;9.182;2022-09-29T15:38:30;13.60;1.00
3308;DHT22;1666;48.898;9.182;2022-09-29T15:41:14;13.60;1.00
3308;DHT22;1666;48.898;9.182;2022-09-29T15:43:55;13.40;1.00
3308;DHT22;1666;48.898;9.182;2022-09-29T15:46:34;13.30;1.00
3308;DHT22;1666;48.898;9.182;2022-09-29T15:49:15;13.40;1.00
3308;DHT22;1666;48.898;9.182;2022-09-29T15:51:54;13.30;1.00
3308;DHT22;1666;48.898;9.182;2022-09-29T15:54:28;13.30;1.00
3308;DHT22;1666;48.898;9.182;2022-09-29T15:57:03;13.30;1.00
3308;DHT22;1666;48.898;9.182;2022-09-29T15:59:48;13.40;1.00
3308;DHT22;1666;48.898;9.182;2022-09-29T16:02:27;13.30;1.00
3308;DHT22;1666;48.898;9.182;2022-09-29T16:05:01;13.40;1.00
3308;DHT22;1666;48.898;9.182;2022-09-29T16:07:33;13.30;1.00
3308;DHT22;1666;48.898;9.182;2022-09-29T16:10:07;13.30;1.00
3308;DHT22;1666;48.898;9.182;2022-09-29T16:12:51;13.20;1.00
3308;DHT22;1666;48.898;9.182;2022-09-29T16:15:25;13.10;1.00
3308;DHT22;1666;48.898;9.182;2022-09-29T16:17:57;13.10;1.00
3308;DHT22;1666;48.898;9.182;2022-09-29T16:20:29;13.10;1.00
3308;DHT22;1666;48.898;9.182;2022-09-29T16:23:05;13.00;1.00
3308;DHT22;1666;48.898;9.182;2022-09-29T16:25:35;13.00;1.00
3308;DHT22;1666;48.898;9.182;2022-09-29T16:28:23;13.00;1.00
3308;DHT22;1666;48.898;9.182;2022-09-29T16:31:01;12.90;1.00
3308;DHT22;1666;48.898;9.182;2022-09-29T16:33:33;12.90;1.00
3308;DHT22;1666;48.898;9.182;2022-09-29T16:36:05;12.80;1.00
3308;DHT22;1666;48.898;9.182;2022-09-29T16:38:38;12.80;1.00
3308;DHT22;1666;48.898;9.182;2022-09-29T16:41:18;12.70;1.00
3308;DHT22;1666;48.898;9.182;2022-09-29T16:44:02;12.60;1.00
3308;DHT22;1666;48.898;9.182;2022-09-29T16:46:33;12.60;1.00
3308;DHT22;1666;48.898;9.182;2022-09-29T16:49:14;12.60;1.00
3308;DHT22;1666;48.898;9.182;2022-09-29T16:51:47;12.50;1.00
3308;DHT22;1666;48.898;9.182;2022-09-29T16:54:20;12.50;1.00
3308;DHT22;1666;48.898;9.182;2022-09-29T16:57:15;12.40;1.00
3308;DHT22;1666;48.898;9.182;2022-09-29T16:59:51;12.30;1.00
3308;DHT22;1666;48.898;9.182;2022-09-29T17:02:23;12.20;1.00
3308;DHT22;1666;48.898;9.182;2022-09-29T17:04:53;12.20;1.00
3308;DHT22;1666;48.898;9.182;2022-09-29T17:07:25;12.10;1.00
3308;DHT22;1666;48.898;9.182;2022-09-29T17:09:57;12.10;1.00
3308;DHT22;1666;48.898;9.182;2022-09-29T17:12:28;12.00;1.00
3308;DHT22;1666;48.898;9.182;2022-09-29T17:15:01;12.00;1.00
3308;DHT22;1666;48.898;9.182;2022-09-29T17:17:31;11.90;1.00
3308;DHT22;1666;48.898;9.182;2022-09-29T17:20:01;11.80;1.00
3308;DHT22;1666;48.898;9.182;2022-09-29T17:22:33;11.80;1.00
3308;DHT22;1666;48.898;9.182;2022-09-29T17:25:05;11.80;1.00
3308;DHT22;1666;48.898;9.182;2022-09-29T17:27:37;11.70;1.00
3308;DHT22;1666;48.898;9.182;2022-09-29T17:30:23;11.70;1.00
3308;DHT22;1666;48.898;9.182;2022-09-29T17:32:55;11.60;1.00
3308;DHT22;1666;48.898;9.182;2022-09-29T17:35:28;11.60;1.00
3308;DHT22;1666;48.898;9.182;2022-09-29T17:37:58;11.60;1.00
3308;DHT22;1666;48.898;9.182;2022-09-29T17:40:33;11.60;1.00
3308;DHT22;1666;48.898;9.182;2022-09-29T17:43:03;11.60;1.00
3308;DHT22;1666;48.898;9.182;2022-09-29T17:45:36;11.70;1.00
3308;DHT22;1666;48.898;9.182;2022-09-29T17:48:07;11.70;1.00
3308;DHT22;1666;48.898;9.182;2022-09-29T17:50:40;11.70;1.00